createdAt,value
2016-07-25T17:20:07.795Z,28.33
2016-07-25T17:21:06.854Z,28.31
2016-07-25T17:22:06.868Z,28.4
2016-07-25T17:23:07.827Z,28.18
2016-07-25T17:24:06.898Z,28.27
2016-07-25T17:25:07.117Z,28.33
2016-07-25T17:26:07.652Z,28.25
2016-07-25T17:27:07.153Z,28.21
2016-07-25T17:28:06.958Z,28.27
2016-07-25T17:29:06.973Z,28.17
2016-07-25T17:30:06.985Z,28.15
2016-07-25T17:31:07.741Z,28.17
2016-07-25T17:32:07.735Z,28.18
2016-07-25T17:33:07.766Z,28.17
2016-07-25T17:34:07.046Z,28.18
2016-07-25T17:35:07.807Z,28.19
2016-07-25T17:36:07.791Z,28.06
2016-07-25T17:37:07.091Z,28.11
2016-07-25T17:39:07.326Z,28.06
2016-07-25T17:40:07.359Z,28.03
2016-07-25T17:41:07.157Z,28.14
2016-07-25T17:42:07.391Z,28
2016-07-25T17:43:07.188Z,27.97
2016-07-25T17:44:08.122Z,27.96
2016-07-25T17:45:08.149Z,28.02
2016-07-25T17:46:07.947Z,28.04
2016-07-25T17:47:07.968Z,27.97
2016-07-25T17:48:08.266Z,27.92
2016-07-25T17:49:07.271Z,27.87
2016-07-25T17:50:08.215Z,27.97
2016-07-25T17:51:07.300Z,27.94
2016-07-25T17:52:07.319Z,27.84
2016-07-25T17:53:07.331Z,27.81
2016-07-25T17:54:07.355Z,27.75
2016-07-25T17:55:07.367Z,27.77
2016-07-25T17:56:07.378Z,27.78
2016-07-25T17:57:07.391Z,27.66
2016-07-25T17:58:08.320Z,27.63
2016-07-25T17:59:08.182Z,27.54
2016-07-25T18:00:07.441Z,27.57
2016-07-25T18:01:07.450Z,27.5
2016-07-25T18:02:07.486Z,27.51
2016-07-25T18:03:07.484Z,27.43
2016-07-25T18:04:08.433Z,27.46
2016-07-25T18:05:07.508Z,27.32
2016-07-25T18:06:07.527Z,27.37
2016-07-25T18:07:07.539Z,27.28
2016-07-25T18:08:07.571Z,27.22
2016-07-25T18:09:07.577Z,27.19
2016-07-25T18:10:07.584Z,27.24
2016-07-25T18:11:07.611Z,27.06
2016-07-25T18:12:08.521Z,27.09
2016-07-25T18:13:08.344Z,27.02
2016-07-25T18:14:08.377Z,27.03
2016-07-25T18:15:08.545Z,26.95
2016-07-25T18:16:08.608Z,26.89
2016-07-25T18:17:08.217Z,26.91
2016-07-25T18:18:07.690Z,26.82
2016-07-25T18:19:07.709Z,26.85
2016-07-25T18:20:07.928Z,26.91
2016-07-25T18:21:07.738Z,26.85
2016-07-25T18:22:07.748Z,26.76
2016-07-25T18:23:07.784Z,26.69
2016-07-25T18:24:07.778Z,26.72
2016-07-25T18:25:07.793Z,26.6
2016-07-25T18:26:07.829Z,26.63
2016-07-25T18:27:08.536Z,26.57
2016-07-25T18:28:08.975Z,26.54
2016-07-25T18:29:07.856Z,26.58
2016-07-25T18:30:08.594Z,26.45
2016-07-25T18:31:08.659Z,26.47
2016-07-25T18:32:07.899Z,26.36
2016-07-25T18:33:07.918Z,26.43
2016-07-25T18:34:07.925Z,26.39
2016-07-25T18:35:08.273Z,26.4
2016-07-25T18:36:07.946Z,26.29
2016-07-25T18:37:08.705Z,26.32
2016-07-25T18:38:07.992Z,26.37
2016-07-25T18:39:07.992Z,26.33
2016-07-25T18:40:08.012Z,26.28
2016-07-25T18:41:08.748Z,26.21
2016-07-25T18:42:08.036Z,26.18
2016-07-25T18:43:08.251Z,26.15
2016-07-25T18:44:08.071Z,26.15
2016-07-25T18:45:08.806Z,26.13
2016-07-25T18:46:08.818Z,26.07
2016-07-25T18:47:08.827Z,25.99
2016-07-25T18:48:08.120Z,25.98
2016-07-25T18:49:24.213Z,25.95
2016-07-25T18:50:08.148Z,25.94
2016-07-25T18:51:08.969Z,25.92
2016-07-25T18:52:08.189Z,25.82
2016-07-25T18:54:09.221Z,25.9
2016-07-25T18:55:08.332Z,25.77
2016-07-25T18:56:08.953Z,25.83
2016-07-25T18:57:08.445Z,25.79
2016-07-25T18:58:08.249Z,25.75
2016-07-25T18:59:08.267Z,25.73
2016-07-25T19:00:08.502Z,25.7
2016-07-25T19:01:08.308Z,25.67
2016-07-25T19:02:08.314Z,25.64
2016-07-25T19:04:09.276Z,25.58
2016-07-25T19:05:08.550Z,25.52
2016-07-25T19:06:09.108Z,25.5
2016-07-25T19:08:09.855Z,25.45
2016-07-25T19:09:24.200Z,25.42
2016-07-25T19:10:10.162Z,25.35
2016-07-25T19:11:08.426Z,25.36
2016-07-25T19:12:23.511Z,25.38
2016-07-25T19:13:10.000Z,25.35
2016-07-25T19:14:09.386Z,25.3
2016-07-25T19:15:08.683Z,25.36
2016-07-25T19:16:09.660Z,25.25
2016-07-25T19:18:09.932Z,25.27
2016-07-25T19:19:08.537Z,25.27
2016-07-25T19:20:08.545Z,25.13
2016-07-25T19:21:08.556Z,25.15
2016-07-25T19:22:08.573Z,25.05
2016-07-25T19:23:08.583Z,25.02
2016-07-25T19:24:08.595Z,25.06
2016-07-25T19:25:09.324Z,25.08
2016-07-25T19:26:10.104Z,25
2016-07-25T19:27:09.952Z,25.09
2016-07-25T19:28:08.650Z,24.93
2016-07-25T19:29:08.659Z,24.93
2016-07-25T19:30:10.162Z,24.95
2016-07-25T19:31:09.804Z,24.93
2016-07-25T19:32:09.421Z,24.88
2016-07-25T19:33:08.730Z,24.91
2016-07-25T19:34:09.673Z,24.87
2016-07-25T19:35:09.475Z,24.84
2016-07-25T19:36:08.771Z,24.83
2016-07-25T19:37:09.490Z,24.87
2016-07-25T19:38:11.563Z,24.81
2016-07-25T19:39:08.815Z,24.83
2016-07-25T19:40:09.885Z,24.85
2016-07-25T19:41:09.582Z,24.83
2016-07-25T19:42:08.864Z,24.78
2016-07-25T19:43:08.912Z,24.8
2016-07-25T19:44:09.115Z,24.76
2016-07-25T19:45:10.066Z,24.77
2016-07-25T19:46:08.972Z,24.78
2016-07-25T19:47:08.952Z,24.68
2016-07-25T19:48:09.110Z,24.69
2016-07-25T19:49:09.633Z,24.71
2016-07-25T19:50:09.861Z,24.69
2016-07-25T19:51:09.061Z,24.61
2016-07-25T19:52:08.961Z,24.53
2016-07-25T19:53:10.419Z,24.52
2016-07-25T19:54:09.943Z,24.53
2016-07-25T19:55:09.094Z,24.57
2016-07-25T19:56:10.019Z,24.58
2016-07-25T19:57:09.278Z,24.45
2016-07-25T19:58:09.444Z,24.47
2016-07-25T19:59:09.175Z,24.45
2016-07-25T20:00:10.618Z,24.42
2016-07-25T20:01:09.066Z,24.4
2016-07-25T20:02:09.093Z,24.35
2016-07-25T20:03:09.141Z,24.37
2016-07-25T20:04:09.198Z,24.27
2016-07-25T20:05:09.116Z,24.25
2016-07-25T20:06:09.862Z,24.18
2016-07-25T20:07:09.937Z,24.2
2016-07-25T20:08:09.424Z,24.22
2016-07-25T20:09:09.211Z,24.13
2016-07-25T20:10:09.382Z,24.09
2016-07-25T20:11:09.931Z,24.06
2016-07-25T20:12:10.218Z,24.05
2016-07-25T20:13:09.232Z,24.08
2016-07-25T20:14:09.255Z,24.1
2016-07-25T20:15:09.238Z,23.95
2016-07-25T20:16:09.258Z,23.98
2016-07-25T20:17:10.509Z,24.06
2016-07-25T20:18:10.055Z,23.94
2016-07-25T20:19:09.294Z,24.03
2016-07-25T20:20:09.502Z,23.97
2016-07-25T20:21:09.624Z,23.94
2016-07-25T20:22:10.073Z,23.91
2016-07-25T20:23:09.409Z,23.9
2016-07-25T20:24:09.362Z,23.94
2016-07-25T20:25:10.146Z,23.85
2016-07-25T20:26:09.438Z,23.78
2016-07-25T20:27:10.111Z,23.8
2016-07-25T20:28:10.118Z,23.78
2016-07-25T20:29:10.120Z,23.78
2016-07-25T20:30:09.426Z,23.75
2016-07-25T20:31:09.438Z,23.73
2016-07-25T20:32:39.189Z,23.7
2016-07-25T20:33:10.197Z,23.72
2016-07-25T20:34:09.472Z,23.7
2016-07-25T20:35:09.496Z,23.58
2016-07-25T20:36:09.501Z,23.6
2016-07-25T20:37:09.520Z,23.65
2016-07-25T20:38:09.723Z,23.65
2016-07-25T20:39:10.263Z,23.5
2016-07-25T20:40:09.546Z,23.57
2016-07-25T20:41:09.794Z,23.51
2016-07-25T20:42:09.566Z,23.46
2016-07-25T20:43:09.582Z,23.39
2016-07-25T20:44:09.589Z,23.38
2016-07-25T20:45:09.606Z,23.47
2016-07-25T20:46:09.626Z,23.39
2016-07-25T20:47:09.630Z,23.38
2016-07-25T20:48:09.643Z,23.23
2016-07-25T20:49:10.568Z,23.23
2016-07-25T20:50:09.674Z,23.31
2016-07-25T20:51:09.676Z,23.35
2016-07-25T20:52:09.688Z,23.23
2016-07-25T20:53:10.429Z,23.28
2016-07-25T20:54:10.441Z,23.23
2016-07-25T20:55:09.777Z,23.2
2016-07-25T20:56:09.739Z,23.19
2016-07-25T20:57:09.859Z,23.1
2016-07-25T20:58:09.761Z,23.15
2016-07-25T20:59:09.972Z,23.13
2016-07-25T21:00:09.985Z,23.07
2016-07-25T21:01:10.544Z,23.02
2016-07-25T21:02:10.014Z,23.05
2016-07-25T21:03:10.020Z,23
2016-07-25T21:04:09.833Z,22.91
2016-07-25T21:05:09.850Z,22.94
2016-07-25T21:06:10.062Z,22.86
2016-07-25T21:07:10.586Z,22.85
2016-07-25T21:08:10.082Z,22.88
2016-07-25T21:09:09.882Z,22.9
2016-07-25T21:10:09.922Z,22.8
2016-07-25T21:11:10.622Z,22.82
2016-07-25T21:12:09.936Z,22.75
2016-07-25T21:13:09.943Z,22.77
2016-07-25T21:14:09.972Z,22.76
2016-07-25T21:15:09.961Z,22.68
2016-07-25T21:17:10.184Z,22.72
2016-07-25T21:18:10.250Z,22.7
2016-07-25T21:19:10.032Z,22.68
2016-07-25T21:20:10.024Z,22.76
2016-07-25T21:21:10.952Z,22.68
2016-07-25T21:22:10.038Z,22.65
2016-07-25T21:23:10.256Z,22.61
2016-07-25T21:24:10.261Z,22.57
2016-07-25T21:25:10.065Z,22.62
2016-07-25T21:26:10.076Z,22.62
2016-07-25T21:27:25.880Z,22.65
2016-07-25T21:28:10.099Z,22.61
2016-07-25T21:29:10.315Z,22.61
2016-07-25T21:30:11.578Z,22.62
2016-07-25T21:31:10.347Z,22.68
2016-07-25T21:32:11.594Z,22.62
2016-07-25T21:33:25.022Z,22.65
2016-07-25T21:34:10.372Z,22.64
2016-07-25T21:35:10.177Z,22.65
2016-07-25T21:36:10.394Z,22.65
2016-07-25T21:37:10.417Z,22.6
2016-07-25T21:38:10.929Z,22.64
2016-07-25T21:39:11.181Z,22.55
2016-07-25T21:40:11.163Z,22.54
2016-07-25T21:41:10.453Z,22.57
2016-07-25T21:42:10.325Z,22.57
2016-07-25T21:43:10.267Z,22.49
2016-07-25T21:44:10.483Z,22.57
2016-07-25T21:46:10.502Z,22.49
2016-07-25T21:47:11.019Z,22.47
2016-07-25T21:49:11.056Z,22.33
2016-07-25T21:50:10.344Z,22.42
2016-07-25T21:51:10.388Z,22.33
2016-07-25T21:52:10.364Z,22.4
2016-07-25T21:53:11.855Z,22.37
2016-07-25T21:54:10.603Z,22.36
2016-07-25T21:55:10.598Z,22.28
2016-07-25T21:56:10.419Z,22.28
2016-07-25T21:57:10.426Z,22.2
2016-07-25T21:58:10.436Z,22.27
2016-07-25T21:59:25.303Z,22.3
2016-07-25T22:00:10.481Z,22.28
2016-07-25T22:01:10.468Z,22.27
2016-07-25T22:02:11.189Z,22.24
2016-07-25T22:03:10.487Z,22.28
2016-07-25T22:04:10.504Z,22.22
2016-07-25T22:05:10.526Z,22.27
2016-07-25T22:06:11.213Z,22.28
2016-07-25T22:08:10.544Z,22.21
2016-07-25T22:09:11.302Z,22.28
2016-07-25T22:10:10.566Z,22.28
2016-07-25T22:11:10.574Z,22.17
2016-07-25T22:12:11.320Z,22.25
2016-07-25T22:13:10.594Z,22.31
2016-07-25T22:14:11.368Z,22.25
2016-07-25T22:15:11.028Z,22.2
2016-07-25T22:16:10.623Z,22.22
2016-07-25T22:17:10.643Z,22.22
2016-07-25T22:18:11.059Z,22.18
2016-07-25T22:19:10.683Z,22.17
2016-07-25T22:20:10.678Z,22.17
2016-07-25T22:21:10.679Z,22.06
2016-07-25T22:22:10.699Z,22.17
2016-07-25T22:23:25.777Z,22.09
2016-07-25T22:24:10.709Z,22.09
2016-07-25T22:25:10.721Z,22.12
2016-07-25T22:26:10.735Z,22.09
2016-07-25T22:28:10.758Z,22.05
2016-07-25T22:29:11.484Z,22.05
2016-07-25T22:30:10.774Z,22.09
2016-07-25T22:31:10.787Z,22.06
2016-07-25T22:32:25.666Z,22.03
2016-07-25T22:33:10.815Z,22.09
2016-07-25T22:34:10.823Z,22.06
2016-07-25T22:35:11.577Z,22.03
2016-07-25T22:36:11.801Z,22.09
2016-07-25T22:37:10.871Z,22.06
2016-07-25T22:38:10.864Z,22.06
2016-07-25T22:39:11.092Z,22.06
2016-07-25T22:40:10.886Z,22.1
2016-07-25T22:41:11.108Z,22.06
2016-07-25T22:42:10.911Z,22.09
2016-07-25T22:43:10.936Z,22.07
2016-07-25T22:44:10.937Z,22.05
2016-07-25T22:45:10.940Z,22.02
2016-07-25T22:46:10.958Z,22.06
2016-07-25T22:47:11.167Z,22.07
2016-07-25T22:48:11.185Z,22.03
2016-07-25T22:49:10.982Z,22.03
2016-07-25T22:50:10.990Z,22.02
2016-07-25T22:51:11.989Z,22
2016-07-25T22:52:11.232Z,22.05
2016-07-25T22:53:11.031Z,21.92
2016-07-25T22:54:11.039Z,22.02
2016-07-25T22:55:12.143Z,22
2016-07-25T22:56:11.642Z,21.98
2016-07-25T22:57:11.465Z,21.94
2016-07-25T22:58:11.078Z,21.94
2016-07-25T22:59:11.098Z,21.94
2016-07-25T23:00:11.707Z,21.9
2016-07-25T23:01:11.321Z,21.88
2016-07-25T23:02:12.073Z,21.92
2016-07-25T23:03:11.377Z,21.88
2016-07-25T23:04:11.967Z,21.86
2016-07-25T23:05:11.906Z,21.8
2016-07-25T23:06:11.174Z,21.84
2016-07-25T23:07:11.174Z,21.77
2016-07-25T23:08:11.207Z,21.84
2016-07-25T23:09:26.065Z,21.84
2016-07-25T23:10:11.212Z,21.88
2016-07-25T23:11:11.222Z,21.72
2016-07-25T23:12:11.233Z,21.72
2016-07-25T23:13:26.307Z,21.68
2016-07-25T23:14:11.252Z,21.72
2016-07-25T23:15:11.260Z,21.65
2016-07-25T23:16:11.274Z,21.61
2016-07-25T23:17:12.025Z,21.64
2016-07-25T23:18:11.342Z,21.65
2016-07-25T23:19:11.308Z,21.53
2016-07-25T23:20:12.044Z,21.53
2016-07-25T23:21:11.331Z,21.56
2016-07-25T23:22:12.108Z,21.58
2016-07-25T23:23:11.473Z,21.52
2016-07-25T23:24:11.357Z,21.49
2016-07-25T23:25:11.365Z,21.52
2016-07-25T23:26:12.503Z,21.46
2016-07-25T23:27:11.605Z,21.5
2016-07-25T23:28:11.608Z,21.54
2016-07-25T23:29:11.504Z,21.53
2016-07-25T23:30:11.652Z,21.54
2016-07-25T23:31:11.429Z,21.5
2016-07-25T23:32:11.439Z,21.44
2016-07-25T23:33:11.453Z,21.52
2016-07-25T23:34:12.208Z,21.49
2016-07-25T23:35:11.508Z,21.52
2016-07-25T23:36:12.216Z,21.49
2016-07-25T23:37:11.494Z,21.43
2016-07-25T23:38:11.501Z,21.46
2016-07-25T23:39:11.519Z,21.53
2016-07-25T23:40:11.520Z,21.54
2016-07-25T23:41:11.532Z,21.52
2016-07-25T23:42:12.312Z,21.49
2016-07-25T23:43:12.267Z,21.5
2016-07-25T23:44:11.562Z,21.46
2016-07-25T23:45:11.575Z,21.47
2016-07-25T23:46:11.581Z,21.52
2016-07-25T23:47:11.591Z,21.46
2016-07-25T23:48:11.610Z,21.44
2016-07-25T23:49:11.627Z,21.47
2016-07-25T23:50:11.648Z,21.52
2016-07-25T23:51:11.640Z,21.44
2016-07-25T23:52:11.647Z,21.53
2016-07-25T23:53:11.661Z,21.49
2016-07-25T23:54:11.875Z,21.47
2016-07-25T23:55:11.724Z,21.46
2016-07-25T23:56:11.680Z,21.47
2016-07-25T23:57:12.585Z,21.47
2016-07-25T23:58:11.715Z,21.4
2016-07-25T23:59:11.725Z,21.32
